Time;durP1;ratioP1;P1;durP2;ratioP2;P2;SDS_P1;SDS_P2;PMS_P1;PMS_P2;Temp;Humidity;BMP_temperature;BMP_pressure;BME280_temperature;BME280_humidity;BME280_pressure;Samples;Min_cycle;Max_cycle;Signal;HPM_P1;HPM_P2
2022/12/25 00:01:05;;;;;;;14.18;5.28;;;;;;;;;;6260314;22;20166;-90
2022/12/25 00:04:11;;;;;;;18.02;6.20;;;;;;;;;;6258738;22;20167;-91
2022/12/25 00:07:16;;;;;;;15.52;5.90;;;;;;;;;;6258817;22;20154;-91
2022/12/25 00:10:22;;;;;;;12.48;5.85;;;;;;;;;;6257840;22;20341;-90
2022/12/25 00:13:27;;;;;;;22.90;6.07;;;;;;;;;;6259437;22;20159;-91
2022/12/25 00:16:32;;;;;;;14.90;6.13;;;;;;;;;;6259133;22;20167;-90
2022/12/25 00:19:38;;;;;;;13.05;5.45;;;;;;;;;;6257637;22;20636;-90
2022/12/25 00:22:43;;;;;;;16.90;5.90;;;;;;;;;;6259250;22;20241;-90
2022/12/25 00:25:48;;;;;;;13.60;5.90;;;;;;;;;;6257254;22;20210;-90
2022/12/25 00:28:54;;;;;;;12.50;5.93;;;;;;;;;;6258641;23;20214;-90
2022/12/25 00:31:59;;;;;;;20.98;6.53;;;;;;;;;;6259233;23;20170;-89
2022/12/25 00:35:06;;;;;;;10.45;5.25;;;;;;;;;;6258486;23;20171;-90
2022/12/25 00:38:12;;;;;;;14.43;5.88;;;;;;;;;;6259925;22;20180;-91
2022/12/25 00:42:17;;;;;;;14.57;5.57;;;;;;;;;;6258016;22;20213;-90
2022/12/25 00:44:44;;;;;;;19.42;6.05;;;;;;;;;;6260237;22;20278;-91
2022/12/25 00:47:53;;;;;;;14.75;5.63;;;;;;;;;;6258430;22;20171;-89
2022/12/25 00:51:00;;;;;;;14.32;5.95;;;;;;;;;;6257892;22;20154;-89
2022/12/25 00:54:05;;;;;;;20.70;6.93;;;;;;;;;;6259335;22;20261;-90
2022/12/25 00:57:10;;;;;;;12.93;5.40;;;;;;;;;;6262379;22;20197;-90
2022/12/25 01:00:16;;;;;;;9.88;4.75;;;;;;;;;;6270635;22;20220;-90
2022/12/25 01:03:21;;;;;;;16.40;4.90;;;;;;;;;;6270259;22;20162;-90
2022/12/25 01:06:28;;;;;;;14.73;5.28;;;;;;;;;;6270405;22;20177;-89
2022/12/25 01:12:58;;;;;;;8.07;4.40;;;;;;;;;;6250519;22;20189;-90
2022/12/25 01:16:06;;;;;;;9.93;4.43;;;;;;;;;;6272796;22;20170;-90
2022/12/25 01:19:11;;;;;;;9.60;4.75;;;;;;;;;;6273204;22;20158;-91
2022/12/25 01:22:18;;;;;;;11.45;4.82;;;;;;;;;;6272620;22;20162;-91
2022/12/25 01:25:23;;;;;;;12.38;5.28;;;;;;;;;;6272260;22;20276;-90
2022/12/25 01:28:29;;;;;;;14.48;5.60;;;;;;;;;;6273102;22;20161;-92
2022/12/25 01:31:34;;;;;;;11.27;5.33;;;;;;;;;;6273091;22;20149;-90
2022/12/25 01:34:39;;;;;;;11.65;4.82;;;;;;;;;;6271318;22;20213;-90
2022/12/25 01:37:45;;;;;;;14.47;4.93;;;;;;;;;;6272381;22;20244;-91
2022/12/25 01:40:50;;;;;;;12.73;4.53;;;;;;;;;;6272672;22;20165;-90
2022/12/25 01:44:00;;;;;;;16.53;5.07;;;;;;;;;;6271696;22;20177;-92
2022/12/25 01:47:06;;;;;;;19.97;5.17;;;;;;;;;;6271366;22;20145;-90
2022/12/25 01:50:11;;;;;;;11.27;4.55;;;;;;;;;;6271770;22;20256;-90
2022/12/25 01:53:17;;;;;;;11.48;4.88;;;;;;;;;;6271574;22;20170;-91
2022/12/25 01:56:23;;;;;;;8.07;4.65;;;;;;;;;;6272844;22;20153;-89
2022/12/25 01:59:28;;;;;;;12.32;4.75;;;;;;;;;;6271082;22;20170;-90
2022/12/25 02:02:33;;;;;;;11.38;4.90;;;;;;;;;;6273236;22;20165;-91
2022/12/25 02:05:39;;;;;;;8.70;4.40;;;;;;;;;;6272466;22;20193;-92
2022/12/25 02:08:45;;;;;;;12.75;5.25;;;;;;;;;;6271487;22;20224;-91
2022/12/25 02:11:57;;;;;;;11.52;5.53;;;;;;;;;;6269302;22;20170;-90
2022/12/25 02:15:04;;;;;;;12.18;5.55;;;;;;;;;;6268984;22;20248;-90
2022/12/25 02:18:12;;;;;;;10.93;5.03;;;;;;;;;;6271409;22;20173;-91
2022/12/25 02:21:31;;;;;;;9.10;4.65;;;;;;;;;;6270698;22;20166;-90
2022/12/25 02:24:48;;;;;;;15.27;4.25;;;;;;;;;;6270693;22;20162;-92
2022/12/25 02:28:00;;;;;;;6.78;3.65;;;;;;;;;;6270218;22;20289;-90
2022/12/25 02:31:08;;;;;;;10.10;3.95;;;;;;;;;;6270712;22;20157;-91
2022/12/25 02:34:15;;;;;;;15.30;5.13;;;;;;;;;;6270585;22;20621;-91
2022/12/25 02:37:24;;;;;;;12.43;4.43;;;;;;;;;;6273310;22;20216;-91
2022/12/25 02:40:31;;;;;;;12.27;4.97;;;;;;;;;;6273057;22;20238;-92
2022/12/25 03:07:44;;;;;;;7.90;4.07;;;;;;;;;;6159704;22;20187;-90
2022/12/25 03:17:39;;;;;;;10.13;4.97;;;;;;;;;;6271876;22;20170;-92
2022/12/25 03:27:32;;;;;;;5.35;3.42;;;;;;;;;;6271705;22;20326;-91
2022/12/25 04:39:03;;;;;;;21.17;6.03;;;;;;;;;;6259723;22;20183;-90
2022/12/25 04:42:10;;;;;;;37.37;6.03;;;;;;;;;;6258844;22;20688;-90
2022/12/25 04:45:16;;;;;;;29.93;5.53;;;;;;;;;;6257987;22;20210;-91
2022/12/25 04:48:21;;;;;;;19.63;5.20;;;;;;;;;;6258942;23;20182;-92
2022/12/25 04:51:27;;;;;;;11.33;5.47;;;;;;;;;;6241676;22;20143;-90
2022/12/25 04:54:32;;;;;;;10.03;4.63;;;;;;;;;;6259884;22;20178;-91
2022/12/25 04:57:38;;;;;;;10.63;4.50;;;;;;;;;;6271648;22;20863;-90
2022/12/25 05:00:54;;;;;;;9.97;4.77;;;;;;;;;;6270626;22;20170;-91
2022/12/25 05:03:59;;;;;;;12.37;5.60;;;;;;;;;;6268374;22;20166;-89
2022/12/25 05:07:04;;;;;;;29.63;6.37;;;;;;;;;;6270172;22;20185;-90
2022/12/25 05:10:10;;;;;;;29.70;4.93;;;;;;;;;;6271888;22;20201;-91
2022/12/25 05:13:16;;;;;;;22.43;5.87;;;;;;;;;;6271114;22;20232;-90
2022/12/25 05:16:22;;;;;;;14.47;5.00;;;;;;;;;;6271085;22;20205;-90
2022/12/25 05:19:27;;;;;;;19.17;5.20;;;;;;;;;;6268365;22;20763;-91
2022/12/25 05:22:32;;;;;;;9.73;4.73;;;;;;;;;;6269156;22;20196;-91
2022/12/25 05:25:39;;;;;;;10.90;4.57;;;;;;;;;;6268820;22;20305;-90
2022/12/25 05:28:45;;;;;;;11.23;4.97;;;;;;;;;;6270805;22;20223;-90
2022/12/25 05:31:50;;;;;;;10.80;4.53;;;;;;;;;;6270926;22;20162;-92
2022/12/25 05:34:55;;;;;;;8.43;4.00;;;;;;;;;;6270489;22;20185;-93
2022/12/25 05:38:00;;;;;;;8.77;4.30;;;;;;;;;;6270843;22;20162;-92
2022/12/25 05:41:06;;;;;;;9.03;4.33;;;;;;;;;;6286726;22;20170;-90
2022/12/25 05:44:15;;;;;;;13.23;5.93;;;;;;;;;;6269254;22;20181;-92
2022/12/25 05:47:20;;;;;;;14.23;6.87;;;;;;;;;;6272213;22;20263;-91
2022/12/25 05:50:25;;;;;;;12.40;5.67;;;;;;;;;;6271461;22;20170;-89
2022/12/25 05:53:43;;;;;;;14.50;5.53;;;;;;;;;;6271729;22;20149;-91
2022/12/25 05:56:48;;;;;;;35.50;6.03;;;;;;;;;;6269026;22;20240;-90
2022/12/25 05:59:54;;;;;;;20.17;6.37;;;;;;;;;;6272095;22;20188;-91
2022/12/25 06:02:59;;;;;;;18.50;5.83;;;;;;;;;;6273381;22;20166;-90
2022/12/25 06:06:06;;;;;;;25.00;6.03;;;;;;;;;;6271377;22;20194;-90
2022/12/25 06:09:12;;;;;;;24.40;5.87;;;;;;;;;;6271786;22;20153;-89
2022/12/25 06:12:17;;;;;;;19.07;6.10;;;;;;;;;;6271894;22;20193;-91
2022/12/25 06:15:24;;;;;;;17.13;6.20;;;;;;;;;;6271081;22;20229;-91
2022/12/25 06:18:29;;;;;;;30.40;6.70;;;;;;;;;;6288129;22;20154;-92
2022/12/25 06:21:34;;;;;;;26.43;6.20;;;;;;;;;;6271057;22;20227;-91
2022/12/25 06:24:40;;;;;;;15.20;5.73;;;;;;;;;;6270626;22;20150;-91
2022/12/25 06:27:44;;;;;;;10.70;5.37;;;;;;;;;;6270790;22;20216;-90
2022/12/25 06:30:51;;;;;;;11.20;5.33;;;;;;;;;;6270875;22;20224;-90
2022/12/25 06:33:56;;;;;;;12.53;4.83;;;;;;;;;;6271198;22;20235;-91
2022/12/25 06:37:01;;;;;;;9.50;4.50;;;;;;;;;;6270528;22;20240;-92
2022/12/25 06:40:07;;;;;;;8.80;4.27;;;;;;;;;;6268996;22;20170;-90
2022/12/25 06:43:38;;;;;;;9.63;3.93;;;;;;;;;;6269056;22;20150;-92
2022/12/25 06:46:45;;;;;;;8.30;4.60;;;;;;;;;;6271851;22;20178;-91
2022/12/25 06:49:50;;;;;;;7.67;4.73;;;;;;;;;;6269949;22;20273;-90
2022/12/25 06:52:56;;;;;;;10.53;4.90;;;;;;;;;;6270482;22;20221;-90
2022/12/25 06:56:04;;;;;;;10.13;4.43;;;;;;;;;;6272070;22;20582;-91
2022/12/25 06:59:10;;;;;;;11.23;4.20;;;;;;;;;;6269259;22;20182;-91
2022/12/25 07:02:19;;;;;;;9.63;4.37;;;;;;;;;;6270438;22;20165;-93
2022/12/25 07:05:24;;;;;;;10.52;4.68;;;;;;;;;;6271451;22;20241;-90
2022/12/25 07:08:30;;;;;;;9.60;4.87;;;;;;;;;;6272754;22;20162;-91
2022/12/25 07:11:34;;;;;;;10.03;4.70;;;;;;;;;;6271927;22;20170;-92
2022/12/25 07:14:39;;;;;;;10.20;4.83;;;;;;;;;;6270810;22;20212;-91
2022/12/25 07:17:46;;;;;;;9.63;4.20;;;;;;;;;;6270111;22;20170;-91
2022/12/25 07:20:51;;;;;;;17.43;7.50;;;;;;;;;;6269913;22;20218;-91
2022/12/25 07:23:56;;;;;;;11.43;5.30;;;;;;;;;;6289148;22;20169;-90
2022/12/25 07:27:01;;;;;;;9.77;4.67;;;;;;;;;;6268457;22;20189;-93
2022/12/25 07:30:07;;;;;;;8.23;4.20;;;;;;;;;;6270152;22;20149;-91
2022/12/25 07:33:14;;;;;;;11.00;5.67;;;;;;;;;;6267961;22;20165;-90
2022/12/25 07:36:19;;;;;;;11.10;4.83;;;;;;;;;;6270420;22;20162;-92
2022/12/25 07:39:24;;;;;;;10.37;5.93;;;;;;;;;;6270382;22;20174;-91
2022/12/25 07:46:42;;;;;;;11.30;5.30;;;;;;;;;;6289248;22;20201;-91
2022/12/25 07:49:49;;;;;;;11.65;4.88;;;;;;;;;;6269944;22;20169;-90
2022/12/25 07:52:54;;;;;;;12.60;5.03;;;;;;;;;;6268722;22;20166;-90
2022/12/25 07:56:00;;;;;;;9.80;5.03;;;;;;;;;;6269631;22;20165;-91
2022/12/25 10:48:26;;;;;;;18.27;8.57;;;;;;;;;;6141039;23;1274353;-90
2022/12/25 10:51:32;;;;;;;12.52;6.60;;;;;;;;;;6178303;23;20167;-89
2022/12/25 10:54:38;;;;;;;12.68;6.68;;;;;;;;;;6182386;23;20244;-91
2022/12/25 10:57:45;;;;;;;14.48;6.72;;;;;;;;;;6179329;23;20191;-89
2022/12/25 11:00:55;;;;;;;11.27;5.78;;;;;;;;;;6181073;23;20172;-91
2022/12/25 11:04:02;;;;;;;14.32;6.43;;;;;;;;;;6178941;23;20225;-92
2022/12/25 11:07:09;;;;;;;19.67;8.95;;;;;;;;;;6178325;23;20171;-91
2022/12/25 11:10:20;;;;;;;8.82;5.40;;;;;;;;;;6178594;23;20225;-91
2022/12/25 11:13:26;;;;;;;13.98;5.82;;;;;;;;;;6177532;23;20175;-91
2022/12/25 11:16:34;;;;;;;14.13;5.45;;;;;;;;;;6178881;23;20200;-90
2022/12/25 11:19:52;;;;;;;10.80;5.15;;;;;;;;;;6177955;23;20176;-91
2022/12/25 11:22:58;;;;;;;10.60;5.18;;;;;;;;;;6179312;23;20164;-91
2022/12/25 11:26:04;;;;;;;14.00;5.30;;;;;;;;;;6177396;23;20623;-90
2022/12/25 11:29:17;;;;;;;14.50;4.88;;;;;;;;;;6177163;23;20245;-91
2022/12/25 11:32:23;;;;;;;11.07;4.75;;;;;;;;;;6180200;23;20250;-91
2022/12/25 11:35:32;;;;;;;13.88;5.35;;;;;;;;;;6178739;23;20163;-92
2022/12/25 11:38:36;;;;;;;9.60;4.63;;;;;;;;;;6180720;23;20198;-91
2022/12/25 11:41:42;;;;;;;7.43;3.83;;;;;;;;;;6179211;23;20708;-92
2022/12/25 11:44:51;;;;;;;10.13;3.90;;;;;;;;;;6179313;23;20156;-92
2022/12/25 11:47:57;;;;;;;10.85;4.20;;;;;;;;;;6168373;23;20196;-93
2022/12/25 11:51:05;;;;;;;10.18;3.70;;;;;;;;;;6165261;23;20168;-91
2022/12/25 11:54:17;;;;;;;6.10;3.47;;;;;;;;;;6168709;23;20196;-91
2022/12/25 11:57:23;;;;;;;7.68;3.35;;;;;;;;;;6165308;23;20172;-91
2022/12/25 12:00:30;;;;;;;7.55;3.13;;;;;;;;;;6166319;23;20209;-91
2022/12/25 12:03:36;;;;;;;7.15;2.97;;;;;;;;;;6164916;23;20172;-92
2022/12/25 12:06:46;;;;;;;6.93;2.95;;;;;;;;;;6164865;23;20172;-89
2022/12/25 12:09:54;;;;;;;9.77;3.20;;;;;;;;;;6166661;23;20225;-92
2022/12/25 12:13:05;;;;;;;8.00;3.13;;;;;;;;;;6162919;23;20608;-90
2022/12/25 12:16:11;;;;;;;6.88;3.13;;;;;;;;;;6163750;23;20165;-92
2022/12/25 12:19:26;;;;;;;7.28;2.45;;;;;;;;;;6164299;23;20267;-91
2022/12/25 12:22:32;;;;;;;6.57;2.95;;;;;;;;;;6166882;23;20189;-92
2022/12/25 12:25:39;;;;;;;6.07;2.55;;;;;;;;;;6166652;23;20164;-90
2022/12/25 12:28:45;;;;;;;7.28;2.28;;;;;;;;;;6164660;23;20176;-91
2022/12/25 12:31:51;;;;;;;11.45;3.83;;;;;;;;;;6165790;23;20196;-90
2022/12/25 12:34:59;;;;;;;14.82;4.15;;;;;;;;;;6163752;23;20176;-90
2022/12/25 12:38:07;;;;;;;7.63;3.80;;;;;;;;;;6163512;23;20212;-89
2022/12/25 12:41:14;;;;;;;8.25;3.00;;;;;;;;;;6164949;23;20172;-90
2022/12/25 12:44:21;;;;;;;4.35;2.05;;;;;;;;;;6164263;23;20169;-89
2022/12/25 12:47:32;;;;;;;9.45;2.50;;;;;;;;;;6182425;23;20658;-90
2022/12/25 12:50:39;;;;;;;5.20;2.47;;;;;;;;;;6182099;23;20223;-89
2022/12/25 12:53:46;;;;;;;6.97;2.00;;;;;;;;;;6182149;23;20376;-91
2022/12/25 12:56:59;;;;;;;8.18;2.20;;;;;;;;;;6183714;23;20168;-91
2022/12/25 13:00:05;;;;;;;7.85;2.45;;;;;;;;;;6183589;23;20171;-89
2022/12/25 13:03:25;;;;;;;10.07;2.38;;;;;;;;;;6183436;23;20175;-90
2022/12/25 13:06:33;;;;;;;5.10;1.70;;;;;;;;;;6181633;23;20219;-90
2022/12/25 13:09:46;;;;;;;8.45;2.70;;;;;;;;;;6183503;23;20164;-90
2022/12/25 13:12:53;;;;;;;3.28;1.83;;;;;;;;;;6181689;23;20192;-91
2022/12/25 13:15:58;;;;;;;6.72;1.70;;;;;;;;;;6182339;23;20168;-91
2022/12/25 13:19:06;;;;;;;6.53;2.00;;;;;;;;;;6181531;23;20261;-91
2022/12/25 13:22:23;;;;;;;5.35;1.67;;;;;;;;;;6181992;23;20196;-91
2022/12/25 13:25:29;;;;;;;6.32;1.92;;;;;;;;;;6182713;23;20670;-91
2022/12/25 13:28:35;;;;;;;6.50;1.90;;;;;;;;;;6181560;23;20495;-89
2022/12/25 13:31:41;;;;;;;10.70;2.28;;;;;;;;;;6182708;23;20215;-91
2022/12/25 13:34:47;;;;;;;10.93;2.40;;;;;;;;;;6183613;23;20172;-91
2022/12/25 13:37:54;;;;;;;6.40;2.20;;;;;;;;;;6180333;23;20168;-88
2022/12/25 13:44:25;;;;;;;7.03;2.03;;;;;;;;;;6183201;23;20191;-90
2022/12/25 13:47:31;;;;;;;11.35;5.43;;;;;;;;;;6181593;23;20195;-89
2022/12/25 13:50:37;;;;;;;5.43;1.85;;;;;;;;;;6181058;23;20180;-91
2022/12/25 13:53:42;;;;;;;9.00;2.78;;;;;;;;;;6181568;23;20168;-89
2022/12/25 13:56:50;;;;;;;7.80;3.40;;;;;;;;;;6179127;23;20175;-92
2022/12/25 13:59:55;;;;;;;8.38;3.35;;;;;;;;;;6178440;23;20301;-91
2022/12/25 14:03:01;;;;;;;9.13;2.63;;;;;;;;;;6179631;23;20171;-90
2022/12/25 14:06:07;;;;;;;11.20;2.78;;;;;;;;;;6178978;23;20167;-91
2022/12/25 14:09:12;;;;;;;8.27;2.20;;;;;;;;;;6179100;23;20255;-90
2022/12/25 14:12:19;;;;;;;13.80;4.88;;;;;;;;;;6181199;23;20172;-90
2022/12/25 14:15:24;;;;;;;12.55;4.97;;;;;;;;;;6179230;23;20537;-90
2022/12/25 14:18:33;;;;;;;13.60;4.70;;;;;;;;;;6180535;23;20192;-90
2022/12/25 14:21:43;;;;;;;12.25;3.58;;;;;;;;;;6181040;23;20622;-91
2022/12/25 14:24:48;;;;;;;10.02;3.38;;;;;;;;;;6177965;23;20523;-89
2022/12/25 14:27:55;;;;;;;15.63;6.03;;;;;;;;;;6179744;23;20164;-89
2022/12/25 14:31:01;;;;;;;11.65;3.97;;;;;;;;;;6181363;23;20168;-89
2022/12/25 14:34:06;;;;;;;12.18;4.38;;;;;;;;;;6183274;23;20171;-90
2022/12/25 14:37:16;;;;;;;14.93;5.88;;;;;;;;;;6183199;23;20176;-89
2022/12/25 14:40:21;;;;;;;12.07;3.50;;;;;;;;;;6183050;23;20625;-90
2022/12/25 14:43:29;;;;;;;6.60;2.42;;;;;;;;;;6183424;23;20156;-90
2022/12/25 14:46:34;;;;;;;5.95;2.00;;;;;;;;;;6183029;23;20180;-89
2022/12/25 14:49:39;;;;;;;11.85;2.92;;;;;;;;;;6183731;23;20251;-90
2022/12/25 14:52:45;;;;;;;14.85;6.30;;;;;;;;;;6183671;23;20244;-90
2022/12/25 14:55:51;;;;;;;11.45;4.20;;;;;;;;;;6184436;23;20268;-90
2022/12/25 14:58:59;;;;;;;10.90;3.85;;;;;;;;;;6181588;23;20195;-91
2022/12/25 15:02:08;;;;;;;9.93;3.08;;;;;;;;;;6181963;23;20168;-91
2022/12/25 15:05:30;;;;;;;8.90;3.10;;;;;;;;;;6182356;23;20494;-92
2022/12/25 15:08:35;;;;;;;8.10;3.15;;;;;;;;;;6181666;23;20168;-91
2022/12/25 15:11:40;;;;;;;10.30;3.20;;;;;;;;;;6181217;23;20164;-89
2022/12/25 15:14:48;;;;;;;12.32;3.75;;;;;;;;;;6163769;23;20156;-89
2022/12/25 15:17:56;;;;;;;14.90;6.70;;;;;;;;;;6182481;23;20171;-89
2022/12/25 15:21:02;;;;;;;10.95;5.00;;;;;;;;;;6184259;23;20167;-91
2022/12/25 15:24:11;;;;;;;11.45;5.63;;;;;;;;;;6183077;23;20176;-90
2022/12/25 15:27:17;;;;;;;9.77;4.30;;;;;;;;;;6182970;23;20219;-91
2022/12/25 15:30:24;;;;;;;10.52;4.28;;;;;;;;;;6182254;23;20161;-88
2022/12/25 15:33:30;;;;;;;13.95;4.28;;;;;;;;;;6183220;23;20151;-89
2022/12/25 15:36:35;;;;;;;15.75;6.32;;;;;;;;;;6183054;23;20238;-89
2022/12/25 15:39:40;;;;;;;25.83;10.25;;;;;;;;;;6182336;23;20275;-89
2022/12/25 15:42:45;;;;;;;16.20;5.88;;;;;;;;;;6183088;23;20168;-90
2022/12/25 15:45:51;;;;;;;10.68;4.50;;;;;;;;;;6181494;23;20159;-89
2022/12/25 15:48:56;;;;;;;12.82;3.95;;;;;;;;;;6181018;23;20203;-91
2022/12/25 15:52:03;;;;;;;16.92;5.47;;;;;;;;;;6182493;23;20176;-91
2022/12/25 15:55:08;;;;;;;19.27;6.82;;;;;;;;;;6180771;23;20578;-90
2022/12/25 15:58:14;;;;;;;19.92;5.47;;;;;;;;;;6181039;23;20171;-90
2022/12/25 16:01:21;;;;;;;10.85;4.70;;;;;;;;;;6181893;23;20175;-91
2022/12/25 16:04:27;;;;;;;18.25;6.35;;;;;;;;;;6180811;23;20167;-91
2022/12/25 16:07:32;;;;;;;13.82;6.07;;;;;;;;;;6182029;23;20143;-90
2022/12/25 16:10:38;;;;;;;15.65;5.38;;;;;;;;;;6182952;23;20171;-90
2022/12/25 16:13:43;;;;;;;12.50;4.90;;;;;;;;;;6182724;23;20597;-91
2022/12/25 16:16:53;;;;;;;13.43;5.15;;;;;;;;;;6180758;23;20175;-88
2022/12/25 16:19:58;;;;;;;13.63;6.43;;;;;;;;;;6181547;23;20247;-89
2022/12/25 16:23:03;;;;;;;24.70;8.90;;;;;;;;;;6185906;23;20151;-92
2022/12/25 16:26:08;;;;;;;18.85;8.05;;;;;;;;;;6187894;23;20180;-91
2022/12/25 16:29:14;;;;;;;25.70;11.38;;;;;;;;;;6183511;23;20219;-87
2022/12/25 16:32:21;;;;;;;19.73;8.10;;;;;;;;;;6182496;23;20168;-88
2022/12/25 16:35:27;;;;;;;16.42;6.93;;;;;;;;;;6183642;23;20156;-90
2022/12/25 16:38:33;;;;;;;20.27;6.90;;;;;;;;;;6185205;23;20199;-91
2022/12/25 16:41:38;;;;;;;14.70;6.75;;;;;;;;;;6186235;23;20171;-93
2022/12/25 16:44:43;;;;;;;16.83;7.13;;;;;;;;;;6186018;23;20163;-89
2022/12/25 16:47:50;;;;;;;20.08;6.60;;;;;;;;;;6183646;23;20195;-88
2022/12/25 16:50:56;;;;;;;23.48;10.73;;;;;;;;;;6184406;23;20168;-91
2022/12/25 16:54:01;;;;;;;20.33;6.80;;;;;;;;;;6184231;23;20179;-89
2022/12/25 16:57:06;;;;;;;18.30;6.50;;;;;;;;;;6183688;23;20251;-91
2022/12/25 17:00:12;;;;;;;13.20;5.88;;;;;;;;;;6184469;23;20239;-89
2022/12/25 17:03:19;;;;;;;14.45;5.90;;;;;;;;;;6182612;23;20164;-90
2022/12/25 17:06:27;;;;;;;18.40;7.80;;;;;;;;;;6182887;23;20164;-89
2022/12/25 17:09:32;;;;;;;14.87;7.57;;;;;;;;;;6182055;23;20168;-90
2022/12/25 17:12:37;;;;;;;20.33;6.80;;;;;;;;;;6182155;23;20175;-88
2022/12/25 17:15:42;;;;;;;17.63;6.70;;;;;;;;;;6183718;23;20155;-89
2022/12/25 17:18:49;;;;;;;16.50;8.10;;;;;;;;;;6182579;23;20167;-90
2022/12/25 17:21:54;;;;;;;12.33;5.67;;;;;;;;;;6182656;23;20168;-91
2022/12/25 17:24:59;;;;;;;11.17;5.53;;;;;;;;;;6180640;23;20213;-89
2022/12/25 17:28:04;;;;;;;14.13;6.37;;;;;;;;;;6180109;23;20283;-92
2022/12/25 17:31:11;;;;;;;9.93;5.30;;;;;;;;;;6179986;23;20172;-90
2022/12/25 17:34:18;;;;;;;35.70;12.87;;;;;;;;;;6181110;23;20598;-93
2022/12/25 17:37:23;;;;;;;35.83;13.77;;;;;;;;;;6180935;23;20167;-89
2022/12/25 17:40:35;;;;;;;13.70;6.43;;;;;;;;;;6184492;23;20200;-90
2022/12/25 17:43:44;;;;;;;18.10;7.97;;;;;;;;;;6181057;23;20152;-91
2022/12/25 17:46:50;;;;;;;25.90;11.00;;;;;;;;;;6181592;23;20195;-87
2022/12/25 17:49:57;;;;;;;18.67;9.03;;;;;;;;;;6182029;23;20168;-89
2022/12/25 17:53:04;;;;;;;17.70;8.87;;;;;;;;;;6181426;23;20164;-89
2022/12/25 17:56:09;;;;;;;23.47;10.60;;;;;;;;;;6182299;23;20160;-90
2022/12/25 17:59:17;;;;;;;22.60;9.43;;;;;;;;;;6181942;23;20172;-89
2022/12/25 18:02:22;;;;;;;17.37;7.23;;;;;;;;;;6181321;23;20601;-89
2022/12/25 18:05:28;;;;;;;23.97;11.87;;;;;;;;;;6181809;23;20218;-89
2022/12/25 18:08:33;;;;;;;60.93;22.03;;;;;;;;;;6182917;23;20248;-90
2022/12/25 18:11:40;;;;;;;28.37;13.03;;;;;;;;;;6182615;23;20167;-90
2022/12/25 18:14:45;;;;;;;34.13;13.03;;;;;;;;;;6183297;23;20167;-89
2022/12/25 18:17:51;;;;;;;23.77;8.53;;;;;;;;;;6180871;23;20203;-88
2022/12/25 18:20:57;;;;;;;13.60;7.00;;;;;;;;;;6178136;23;20195;-88
2022/12/25 18:24:03;;;;;;;23.00;9.80;;;;;;;;;;6182853;23;20200;-90
2022/12/25 18:27:09;;;;;;;15.97;6.43;;;;;;;;;;6180532;23;20183;-90
2022/12/25 18:30:14;;;;;;;19.23;9.03;;;;;;;;;;6181086;23;20179;-89
2022/12/25 18:33:19;;;;;;;15.03;5.70;;;;;;;;;;6179715;23;20595;-87
2022/12/25 18:36:28;;;;;;;13.57;6.40;;;;;;;;;;6180599;23;20188;-90
2022/12/25 18:39:33;;;;;;;15.30;7.03;;;;;;;;;;6181090;23;20171;-88
2022/12/25 18:42:39;;;;;;;16.80;7.47;;;;;;;;;;6179275;23;20163;-87
2022/12/25 18:45:44;;;;;;;37.43;15.40;;;;;;;;;;6180187;23;20152;-89
2022/12/25 18:48:49;;;;;;;25.80;11.97;;;;;;;;;;6181778;23;20163;-88
2022/12/25 18:52:00;;;;;;;29.40;13.23;;;;;;;;;;6180628;23;20172;-87
2022/12/25 18:55:06;;;;;;;22.77;10.97;;;;;;;;;;6181618;23;20152;-88
2022/12/25 18:58:12;;;;;;;30.80;12.77;;;;;;;;;;6181059;23;20172;-89
2022/12/25 19:05:49;;;;;;;22.70;10.17;;;;;;;;;;6197784;23;20151;-89
2022/12/25 19:08:57;;;;;;;27.60;10.43;;;;;;;;;;6177508;23;20231;-90
2022/12/25 19:12:02;;;;;;;18.90;8.97;;;;;;;;;;6178905;23;20155;-89
2022/12/25 19:15:07;;;;;;;17.87;8.33;;;;;;;;;;6178419;23;20211;-89
2022/12/25 19:18:13;;;;;;;17.80;7.50;;;;;;;;;;6179365;23;20658;-88
2022/12/25 19:21:18;;;;;;;19.40;8.33;;;;;;;;;;6180993;23;20195;-88
2022/12/25 19:24:25;;;;;;;27.53;11.53;;;;;;;;;;6180019;23;20184;-89
2022/12/25 19:27:30;;;;;;;20.17;7.80;;;;;;;;;;6181000;23;20172;-89
2022/12/25 19:30:38;;;;;;;23.93;10.00;;;;;;;;;;6179418;23;20251;-88
2022/12/25 19:33:43;;;;;;;53.00;22.30;;;;;;;;;;6180449;23;20171;-90
2022/12/25 19:36:48;;;;;;;19.80;6.57;;;;;;;;;;6180364;23;20239;-89
2022/12/25 19:39:54;;;;;;;11.57;6.47;;;;;;;;;;6180705;23;20199;-90
2022/12/25 19:43:00;;;;;;;17.67;8.53;;;;;;;;;;6180700;23;20357;-88
2022/12/25 19:46:05;;;;;;;22.70;8.07;;;;;;;;;;6180546;23;20188;-89
2022/12/25 19:49:12;;;;;;;14.53;7.37;;;;;;;;;;6181426;23;20172;-89
2022/12/25 19:52:17;;;;;;;20.73;9.20;;;;;;;;;;6182962;23;20212;-90
2022/12/25 19:55:24;;;;;;;24.23;11.83;;;;;;;;;;6182043;23;20180;-90
2022/12/25 19:58:29;;;;;;;18.50;8.70;;;;;;;;;;6180155;23;20167;-89
2022/12/25 20:01:35;;;;;;;20.73;9.40;;;;;;;;;;6179214;23;20190;-90
2022/12/25 20:04:40;;;;;;;22.73;9.47;;;;;;;;;;6180101;23;20159;-88
2022/12/25 20:07:46;;;;;;;22.50;10.70;;;;;;;;;;6181317;23;20179;-88
2022/12/25 20:10:53;;;;;;;27.10;11.73;;;;;;;;;;6200105;23;20232;-90
2022/12/25 20:13:59;;;;;;;18.23;8.90;;;;;;;;;;6178702;23;20285;-89
2022/12/25 20:17:04;;;;;;;27.97;11.10;;;;;;;;;;6180649;23;20168;-88
2022/12/25 20:20:10;;;;;;;45.63;14.10;;;;;;;;;;6179538;23;20192;-89
2022/12/25 20:23:16;;;;;;;27.13;11.07;;;;;;;;;;6181882;23;20163;-90
2022/12/25 20:26:24;;;;;;;28.70;12.20;;;;;;;;;;6181299;23;20172;-93
2022/12/25 20:29:29;;;;;;;22.27;8.43;;;;;;;;;;6177874;23;20176;-92
2022/12/25 20:32:34;;;;;;;25.00;9.17;;;;;;;;;;6175622;23;20158;-90
2022/12/25 20:35:45;;;;;;;20.30;7.53;;;;;;;;;;6176867;23;20168;-90
2022/12/25 20:38:50;;;;;;;18.37;7.43;;;;;;;;;;6176778;23;20175;-88
2022/12/25 20:41:56;;;;;;;19.20;6.57;;;;;;;;;;6176855;23;20194;-90
2022/12/25 20:45:02;;;;;;;17.43;6.93;;;;;;;;;;6176258;23;20172;-89
2022/12/25 20:48:09;;;;;;;21.07;7.90;;;;;;;;;;6177168;23;20228;-90
2022/12/25 20:51:15;;;;;;;27.73;10.53;;;;;;;;;;6177955;23;20740;-90
2022/12/25 20:54:21;;;;;;;12.30;6.23;;;;;;;;;;6177647;23;20637;-91
2022/12/25 20:57:27;;;;;;;23.60;8.20;;;;;;;;;;6177623;23;20187;-90
2022/12/25 21:00:32;;;;;;;25.93;7.97;;;;;;;;;;6177253;23;20195;-90
2022/12/25 21:03:52;;;;;;;22.03;7.73;;;;;;;;;;6177355;23;20168;-90
2022/12/25 21:06:57;;;;;;;28.17;7.60;;;;;;;;;;6178574;23;20168;-89
2022/12/25 21:10:02;;;;;;;25.30;9.00;;;;;;;;;;6179308;23;20242;-89
2022/12/25 21:13:08;;;;;;;34.07;9.23;;;;;;;;;;6179388;23;20253;-89
2022/12/25 21:16:15;;;;;;;31.87;9.43;;;;;;;;;;6178962;23;20195;-88
2022/12/25 21:19:20;;;;;;;40.90;12.77;;;;;;;;;;6178500;23;20300;-89
2022/12/25 21:22:26;;;;;;;35.50;10.00;;;;;;;;;;6179817;23;20176;-87
2022/12/25 21:25:31;;;;;;;41.37;8.43;;;;;;;;;;6180296;23;20622;-90
2022/12/25 21:28:37;;;;;;;25.87;7.37;;;;;;;;;;6180227;23;20180;-90
2022/12/25 21:35:01;;;;;;;28.53;7.00;;;;;;;;;;6178618;23;20187;-89
2022/12/25 21:38:06;;;;;;;26.07;7.80;;;;;;;;;;6179505;23;20168;-89
2022/12/25 21:41:13;;;;;;;13.77;5.67;;;;;;;;;;6179743;23;20180;-89
2022/12/25 21:44:21;;;;;;;20.20;10.47;;;;;;;;;;6179940;23;20164;-90
2022/12/25 21:47:26;;;;;;;24.00;8.57;;;;;;;;;;6176408;23;20191;-88
2022/12/25 21:53:54;;;;;;;14.43;6.87;;;;;;;;;;6179494;23;20219;-90
2022/12/25 21:56:59;;;;;;;22.03;8.60;;;;;;;;;;6179103;23;20168;-89
2022/12/25 22:00:12;;;;;;;15.37;7.03;;;;;;;;;;6178491;23;20503;-89
2022/12/25 22:10:18;;;;;;;17.40;7.50;;;;;;;;;;6179152;23;20184;-89
2022/12/25 22:20:11;;;;;;;24.97;6.97;;;;;;;;;;6179580;23;20172;-90
2022/12/25 22:23:16;;;;;;;55.83;8.90;;;;;;;;;;6178122;23;20243;-88
2022/12/25 22:26:21;;;;;;;27.70;7.70;;;;;;;;;;6178589;23;20168;-89
2022/12/25 22:29:26;;;;;;;77.97;10.37;;;;;;;;;;6176638;23;20256;-89
2022/12/25 22:32:33;;;;;;;32.83;9.40;;;;;;;;;;6177264;23;20187;-88
2022/12/25 22:35:38;;;;;;;31.23;8.40;;;;;;;;;;6178384;23;20167;-92
2022/12/25 22:38:43;;;;;;;58.00;10.43;;;;;;;;;;6179981;23;20168;-90
2022/12/25 22:41:49;;;;;;;36.37;9.80;;;;;;;;;;6179395;23;20695;-89
2022/12/25 22:44:54;;;;;;;23.40;8.53;;;;;;;;;;6176361;23;20164;-89
2022/12/25 22:48:01;;;;;;;57.57;7.23;;;;;;;;;;6178346;23;20174;-90
2022/12/25 22:51:06;;;;;;;59.13;7.60;;;;;;;;;;6195384;23;20180;-90
2022/12/25 22:54:12;;;;;;;45.27;7.63;;;;;;;;;;6179086;23;20164;-92
2022/12/25 22:57:18;;;;;;;90.43;10.73;;;;;;;;;;6180776;23;20167;-91
2022/12/25 23:00:24;;;;;;;24.47;6.03;;;;;;;;;;6177548;23;20187;-91
2022/12/25 23:03:32;;;;;;;21.40;7.77;;;;;;;;;;6180735;23;20164;-89
2022/12/25 23:06:38;;;;;;;23.73;5.90;;;;;;;;;;6181453;23;20163;-90
2022/12/25 23:09:44;;;;;;;27.73;6.23;;;;;;;;;;6181403;23;20215;-90
2022/12/25 23:16:13;;;;;;;58.17;6.53;;;;;;;;;;6179347;23;20252;-90
2022/12/25 23:26:09;;;;;;;54.43;8.07;;;;;;;;;;6182057;23;20152;-92
2022/12/25 23:32:38;;;;;;;32.93;6.93;;;;;;;;;;6181133;23;20629;-90
2022/12/25 23:35:44;;;;;;;56.17;7.60;;;;;;;;;;6181168;23;20171;-91
2022/12/25 23:38:49;;;;;;;63.43;9.10;;;;;;;;;;6180387;23;20506;-91
2022/12/25 23:41:54;;;;;;;44.40;8.97;;;;;;;;;;6181549;23;20252;-92
2022/12/25 23:45:00;;;;;;;29.00;7.90;;;;;;;;;;6180332;23;20168;-90
2022/12/25 23:48:05;;;;;;;96.13;12.70;;;;;;;;;;6182069;23;20191;-90